Time;durP1;ratioP1;P1;durP2;ratioP2;P2;SDS_P1;SDS_P2;PMS_P1;PMS_P2;Temp;Humidity;BMP_temperature;BMP_pressure;BME280_temperature;BME280_humidity;BME280_pressure;Samples;Min_cycle;Max_cycle;Signal;HPM_P1;HPM_P2
2022/09/05 00:00:16;;;;;;;0.10;0.10;;;15.80;99.90;;;15.64;100.00;100871.25;4822530;29;20216;-78
2022/09/05 00:02:54;;;;;;;0.15;0.15;;;;;;;15.62;100.00;100879.28;4851525;29;20224;-78
2022/09/05 00:06:06;;;;;;;0.20;0.20;;;15.70;99.90;;;15.63;100.00;100886.38;4848889;29;20228;-78
2022/09/05 00:09:03;;;;;;;0.20;0.20;;;15.80;99.90;;;15.83;100.00;100872.06;4833400;29;20209;-78
2022/09/05 00:11:48;;;;;;;0.10;0.10;;;15.50;99.90;;;15.87;100.00;100876.47;4838789;29;20244;-79
2022/09/05 00:14:37;;;;;;;0.10;0.10;;;15.70;99.90;;;15.58;100.00;100889.91;4834541;29;20237;-79
2022/09/05 00:17:44;;;;;;;0.10;0.10;;;;;;;15.58;100.00;100888.13;4852985;29;20675;-78
2022/09/05 00:20:53;;;;;;;0.20;0.20;;;15.60;99.90;;;15.63;100.00;100905.03;4853843;29;20223;-78
2022/09/05 00:24:25;;;;;;;0.20;0.20;;;15.60;99.90;;;15.58;100.00;100911.25;4827485;29;20228;-79
2022/09/05 00:27:48;;;;;;;0.10;0.10;;;15.60;99.90;;;15.73;100.00;100905.88;4799996;29;20225;-78
2022/09/05 00:30:19;;;;;;;0.20;0.20;;;15.60;99.90;;;15.80;100.00;100898.75;4830578;29;20247;-78
2022/09/05 00:33:54;;;;;;;0.13;0.13;;;15.70;99.90;;;15.58;100.00;100900.59;4817473;29;20218;-78
2022/09/05 00:36:53;;;;;;;0.20;0.20;;;15.50;99.90;;;15.32;100.00;100911.31;4841219;29;20229;-81
2022/09/05 00:39:25;;;;;;;0.10;0.10;;;;;;;15.31;100.00;100905.09;4838890;29;20209;-80
2022/09/05 00:41:58;;;;;;;0.20;0.20;;;15.40;99.90;;;15.31;100.00;100902.41;4850995;29;20225;-78
2022/09/05 00:44:31;;;;;;;0.20;0.20;;;15.40;99.90;;;15.37;100.00;100907.72;4842586;29;20237;-78
2022/09/05 00:47:28;;;;;;;0.30;0.30;;;;;;;15.51;100.00;100909.47;4832743;29;20225;-78
2022/09/05 00:50:09;;;;;;;0.10;0.10;;;15.50;99.90;;;15.31;100.00;100915.75;4771585;29;20216;-78
2022/09/05 00:52:56;;;;;;;0.10;0.10;;;15.30;99.90;;;15.15;100.00;100916.66;4834848;29;20218;-78
2022/09/05 00:56:18;;;;;;;0.20;0.20;;;15.20;99.90;;;15.24;100.00;100931.75;4833189;29;20232;-77
2022/09/05 00:59:23;;;;;;;0.10;0.10;;;15.20;99.90;;;15.26;100.00;100941.50;4837939;29;20199;-78
2022/09/05 01:02:10;;;;;;;0.20;0.20;;;15.20;99.90;;;15.05;100.00;100931.78;4852881;29;20224;-78
2022/09/05 01:04:52;;;;;;;0.10;0.10;;;;;;;15.04;100.00;100939.78;4841175;29;20236;-78
2022/09/05 01:07:36;;;;;;;0.10;0.10;;;15.00;99.90;;;14.92;100.00;100935.34;4855587;29;20228;-77
2022/09/05 01:10:18;;;;;;;0.20;0.20;;;;;;;14.83;100.00;100938.00;4821482;29;20244;-79
2022/09/05 01:13:22;;;;;;;0.10;0.10;;;14.90;99.90;;;14.76;100.00;100933.59;4855298;29;20212;-78
2022/09/05 01:16:21;;;;;;;0.10;0.10;;;14.90;99.90;;;15.09;100.00;100939.78;4841813;29;20240;-78
2022/09/05 01:19:28;;;;;;;0.20;0.20;;;15.10;99.90;;;15.14;100.00;100946.88;4864727;29;20217;-78
2022/09/05 01:22:17;;;;;;;0.10;0.10;;;15.10;99.90;;;15.14;100.00;100945.97;4848799;29;20217;-78
2022/09/05 01:24:53;;;;;;;0.10;0.10;;;15.00;99.90;;;14.94;100.00;100930.03;4856397;29;20240;-78
2022/09/05 01:27:49;;;;;;;0.10;0.10;;;15.00;99.90;;;14.97;100.00;100943.34;4857050;29;20391;-77
2022/09/05 01:31:15;;;;;;;0.20;0.20;;;14.90;99.90;;;14.71;100.00;100932.69;4846582;29;20679;-78
2022/09/05 01:33:56;;;;;;;0.20;0.20;;;;;;;14.75;100.00;100953.09;4841262;29;20708;-78
2022/09/05 01:37:06;;;;;;;0.20;0.20;;;14.80;99.90;;;14.82;100.00;100954.00;4840598;29;20232;-77
2022/09/05 01:40:25;;;;;;;0.10;0.10;;;14.80;99.90;;;14.72;100.00;100958.44;4846345;29;20245;-78
2022/09/05 01:43:22;;;;;;;0.20;0.20;;;14.80;99.90;;;14.82;100.00;100956.66;4857378;29;20213;-79
2022/09/05 01:45:58;;;;;;;0.40;0.40;;;14.70;99.90;;;14.54;100.00;100958.41;4849357;29;20229;-78
2022/09/05 01:48:41;;;;;;;0.10;0.10;;;;;;;14.44;100.00;100968.16;4826660;29;20567;-78
2022/09/05 01:51:31;;;;;;;0.20;0.20;;;14.50;99.90;;;14.44;100.00;100967.28;4857330;29;20237;-78
2022/09/05 01:54:31;;;;;;;0.10;0.10;;;14.50;99.90;;;14.40;100.00;100961.91;4836334;29;20949;-78
2022/09/05 01:57:23;;;;;;;0.17;0.17;;;14.40;99.90;;;14.29;100.00;100963.63;4846251;29;20222;-77
2022/09/05 02:00:08;;;;;;;0.10;0.10;;;14.40;99.90;;;14.28;100.00;100976.94;4854660;29;20214;-78
2022/09/05 02:03:14;;;;;;;0.20;0.20;;;14.40;99.90;;;14.37;100.00;100979.66;4856446;29;20213;-78
2022/09/05 02:06:33;;;;;;;0.10;0.10;;;14.50;99.90;;;14.69;100.00;100999.25;4857261;29;20331;-78
2022/09/05 02:09:32;;;;;;;0.20;0.20;;;14.60;99.90;;;14.53;100.00;100994.78;4842234;29;20217;-77
2022/09/05 02:12:13;;;;;;;0.47;0.47;;;14.60;99.90;;;14.66;100.00;100998.34;4857816;29;20244;-78
2022/09/05 02:15:01;;;;;;;0.20;0.20;;;14.60;99.90;;;14.76;100.00;101013.47;4857591;29;20315;-78
2022/09/05 02:17:41;;;;;;;0.20;0.20;;;14.70;99.90;;;14.80;100.00;101019.66;4849950;29;20662;-79
2022/09/05 02:20:39;;;;;;;0.20;0.20;;;14.70;99.90;;;14.53;100.00;101005.44;4841316;29;20213;-78
2022/09/05 02:23:39;;;;;;;0.20;0.20;;;14.60;99.90;;;14.61;100.00;101022.31;4857384;29;20217;-78
2022/09/05 02:26:22;;;;;;;0.10;0.10;;;14.60;99.90;;;14.57;100.00;101020.53;4832109;29;20224;-78
2022/09/05 02:28:59;;;;;;;0.20;0.20;;;14.50;99.90;;;14.45;100.00;101023.16;4852432;29;20210;-78
2022/09/05 02:31:38;;;;;;;0.30;0.30;;;14.50;99.90;;;14.56;100.00;101034.72;4853179;29;20228;-79
2022/09/05 02:34:34;;;;;;;0.20;0.20;;;14.50;99.90;;;14.52;100.00;101026.72;4838076;29;20234;-79
2022/09/05 02:37:23;;;;;;;0.20;0.20;;;14.40;99.90;;;14.43;100.00;101032.03;4846827;29;20237;-77
2022/09/05 02:40:23;;;;;;;0.20;0.20;;;;;;;14.26;100.00;101013.28;4850178;29;20217;-78
2022/09/05 02:43:19;;;;;;;0.22;0.22;;;14.30;99.90;;;14.39;100.00;100997.38;4848848;29;20236;-78
2022/09/05 02:46:10;;;;;;;0.20;0.20;;;;;;;14.22;100.00;101000.84;4851442;29;20221;-79
2022/09/05 02:49:02;;;;;;;0.20;0.20;;;14.30;99.90;;;14.18;100.00;101001.72;4833759;29;20217;-77
2022/09/05 02:52:02;;;;;;;0.30;0.30;;;14.20;99.90;;;14.20;100.00;100995.53;4835511;29;20236;-79
2022/09/05 02:54:53;;;;;;;0.10;0.10;;;14.20;99.90;;;14.06;100.00;101003.47;4849216;29;20237;-78
2022/09/05 02:57:54;;;;;;;0.20;0.20;;;14.10;99.90;;;13.96;100.00;101009.63;4847866;29;20722;-78
2022/09/05 03:01:03;;;;;;;0.15;0.15;;;14.00;99.90;;;13.85;100.00;101018.44;4834323;29;20221;-79
2022/09/05 03:03:49;;;;;;;0.25;0.25;;;14.00;99.90;;;13.82;100.00;101021.97;4856366;29;20212;-78
2022/09/05 03:06:34;;;;;;;0.25;0.25;;;16.50;99.90;;;13.89;100.00;101031.75;4841354;29;20227;-78
2022/09/05 03:09:36;;;;;;;0.20;0.20;;;13.90;99.90;;;14.02;100.00;101035.34;4836610;29;20209;-78
2022/09/05 03:12:48;;;;;;;0.20;0.20;;;14.00;99.90;;;14.25;100.00;101030.13;4852304;29;20252;-78
2022/09/05 03:15:59;;;;;;;0.30;0.30;;;14.10;99.90;;;14.01;100.00;101031.81;4855435;29;20224;-78
2022/09/05 03:18:59;;;;;;;0.10;0.10;;;14.00;99.90;;;13.96;100.00;101035.34;4846553;29;20216;-78
2022/09/05 03:22:06;;;;;;;0.10;0.10;;;15.00;99.90;;;13.96;100.00;101043.31;4854919;29;20210;-79
2022/09/05 03:25:13;;;;;;;0.10;0.10;;;14.00;99.90;;;14.05;100.00;101054.00;4846978;29;20233;-79
2022/09/05 03:28:14;;;;;;;0.10;0.10;;;14.00;99.90;;;14.04;100.00;101053.09;4853549;29;20213;-79
2022/09/05 03:31:17;;;;;;;0.20;0.20;;;14.00;99.90;;;13.95;100.00;101052.16;4856639;29;20757;-78
2022/09/05 03:34:07;;;;;;;0.30;0.30;;;14.00;99.90;;;13.93;100.00;101046.84;4847463;29;20209;-78
2022/09/05 03:37:06;;;;;;;0.20;0.20;;;14.00;99.90;;;13.87;100.00;101045.91;4856346;29;20572;-77
2022/09/05 03:40:28;;;;;;;0.20;0.20;;;14.50;99.90;;;13.73;100.00;101057.38;4836666;29;20675;-79
2022/09/05 03:43:20;;;;;;;0.20;0.20;;;13.80;99.90;;;13.83;100.00;101047.66;4853023;29;20222;-78
2022/09/05 03:46:44;;;;;;;0.10;0.10;;;13.90;99.90;;;13.98;100.00;101045.09;4846383;29;20221;-79
2022/09/05 03:49:44;;;;;;;0.20;0.20;;;13.90;99.90;;;13.75;100.00;101054.72;4834889;29;20225;-79
2022/09/05 03:53:00;;;;;;;0.20;0.20;;;13.80;99.90;;;13.78;100.00;101052.06;4846538;29;20248;-79
2022/09/05 03:56:37;;;;;;;0.20;0.20;;;13.80;99.90;;;13.88;100.00;101063.66;4854205;29;20244;-79
2022/09/05 03:59:25;;;;;;;0.20;0.20;;;;;;;13.77;100.00;101066.25;4851036;29;20220;-79
2022/09/05 04:02:03;;;;;;;0.30;0.30;;;13.80;99.90;;;13.80;100.00;101073.34;4848480;29;20222;-78
2022/09/05 04:05:03;;;;;;;0.10;0.10;;;13.80;99.90;;;13.82;100.00;101067.16;4851390;29;20232;-79
2022/09/05 04:08:18;;;;;;;0.20;0.20;;;13.80;99.90;;;13.75;100.00;101070.66;4838380;29;20214;-79
2022/09/05 04:11:13;;;;;;;0.20;0.20;;;13.80;99.90;;;13.78;100.00;101062.72;4861805;29;20208;-80
2022/09/05 04:13:55;;;;;;;0.13;0.13;;;13.80;99.90;;;13.98;100.00;101062.81;4825392;29;20220;-79
2022/09/05 04:16:45;;;;;;;0.20;0.20;;;13.80;99.90;;;13.83;100.00;101060.06;4842264;29;20658;-79
2022/09/05 04:19:19;;;;;;;0.20;0.20;;;;;;;13.70;100.00;101062.66;4842374;29;20213;-78
2022/09/05 04:22:15;;;;;;;0.20;0.20;;;13.70;99.90;;;13.62;100.00;101077.66;4845138;29;20224;-79
2022/09/05 04:25:06;;;;;;;0.20;0.20;;;13.70;99.90;;;13.57;100.00;101078.53;4848718;29;20236;-77
2022/09/05 04:28:09;;;;;;;0.10;0.10;;;13.70;99.90;;;13.65;100.00;101088.31;4848962;29;20225;-81
2022/09/05 04:30:38;;;;;;;0.20;0.20;;;;;;;13.78;100.00;101098.16;4846129;29;20205;-81
2022/09/05 04:33:41;;;;;;;0.20;0.20;;;13.70;99.90;;;13.62;100.00;101090.97;4854334;29;20248;-83
2022/09/05 04:36:42;;;;;;;0.20;0.20;;;13.60;99.90;;;13.62;100.00;101098.03;4853806;29;20220;-82
2022/09/05 04:39:16;;;;;;;0.20;0.20;;;13.70;99.90;;;13.68;100.00;101104.28;4834067;29;20209;-82
2022/09/05 04:42:28;;;;;;;0.10;0.10;;;13.80;99.90;;;13.82;100.00;101108.81;4861265;29;20228;-82
2022/09/05 04:45:06;;;;;;;0.10;0.10;;;13.70;99.90;;;13.72;100.00;101110.53;4838971;29;20228;-82
2022/09/05 04:47:49;;;;;;;0.17;0.17;;;13.70;99.90;;;13.63;100.00;101103.38;4845694;29;20225;-83
2022/09/05 04:50:21;;;;;;;0.20;0.20;;;13.60;99.90;;;13.69;100.00;101098.09;4858552;29;20221;-82
2022/09/05 04:53:09;;;;;;;0.10;0.10;;;13.70;99.90;;;13.74;100.00;101111.41;4861799;29;20261;-85
2022/09/05 04:55:48;;;;;;;0.10;0.10;;;13.70;99.90;;;13.77;100.00;101132.69;4855990;29;20225;-82
2022/09/05 04:58:30;;;;;;;0.10;0.10;;;13.70;99.90;;;13.88;100.00;101144.31;4846880;29;20554;-85
2022/09/05 05:01:38;;;;;;;0.10;0.10;;;13.80;99.90;;;13.94;100.00;101151.44;4852297;29;20232;-83
2022/09/05 05:04:27;;;;;;;0.10;0.10;;;13.90;99.90;;;13.96;100.00;101142.59;4856243;29;20248;-82
2022/09/05 05:07:25;;;;;;;0.20;0.20;;;12.60;99.90;;;13.95;100.00;101146.13;4852698;29;20224;-84
2022/09/05 05:10:03;;;;;;;0.10;0.10;;;13.90;99.90;;;14.03;100.00;101148.84;4842880;29;20205;-82
2022/09/05 05:12:54;;;;;;;0.10;0.10;;;13.90;99.90;;;14.04;100.00;101145.28;4859310;29;20237;-81
2022/09/05 05:16:00;;;;;;;0.17;0.17;;;13.90;99.90;;;14.06;100.00;101138.22;4863932;29;20248;-85
2022/09/05 05:18:59;;;;;;;0.10;0.10;;;14.00;99.90;;;14.12;100.00;101148.88;4845872;29;20224;-80
2022/09/05 05:21:35;;;;;;;0.30;0.30;;;;;;;14.07;100.00;101158.59;4855980;29;20734;-81
2022/09/05 05:24:14;;;;;;;0.20;0.20;;;14.00;99.90;;;14.10;100.00;101158.63;4850420;29;20233;-83
2022/09/05 05:27:04;;;;;;;0.22;0.22;;;14.10;99.90;;;14.22;100.00;101164.03;4821698;29;20214;-82
2022/09/05 05:29:52;;;;;;;0.20;0.20;;;14.10;99.90;;;14.22;100.00;101165.78;4854044;29;20210;-84
2022/09/05 05:32:31;;;;;;;0.20;0.20;;;14.30;99.90;;;14.41;100.00;101186.34;4838761;29;20691;-80
2022/09/05 05:35:19;;;;;;;0.22;0.22;;;14.40;99.90;;;14.49;100.00;101183.75;4845101;29;20647;-80
2022/09/05 05:38:08;;;;;;;0.10;0.10;;;14.40;99.90;;;14.41;100.00;101187.22;4851489;29;20232;-80
2022/09/05 05:40:45;;;;;;;0.20;0.20;;;14.40;99.90;;;14.40;100.00;101195.19;4830592;29;20225;-81
2022/09/05 05:43:32;;;;;;;0.10;0.10;;;14.30;99.90;;;14.24;100.00;101198.63;4836578;29;20213;-79
2022/09/05 05:46:01;;;;;;;0.10;0.10;;;;;;;14.27;100.00;101195.97;4847975;29;20237;-79
2022/09/05 05:48:38;;;;;;;0.20;0.20;;;14.20;99.90;;;14.32;100.00;101197.81;4833600;29;20216;-81
2022/09/05 05:51:30;;;;;;;0.20;0.20;;;14.30;99.90;;;14.34;100.00;101203.16;4843872;29;20224;-80
2022/09/05 05:54:34;;;;;;;0.20;0.20;;;14.30;99.90;;;14.37;100.00;101208.50;4855593;29;20241;-81
2022/09/05 05:57:28;;;;;;;0.20;0.20;;;14.30;99.90;;;14.39;100.00;101218.25;4853458;29;20213;-80
2022/09/05 06:00:06;;;;;;;0.15;0.15;;;14.30;99.90;;;14.48;100.00;101212.13;4860580;29;20228;-81
2022/09/05 06:03:01;;;;;;;0.20;0.20;;;;;;;14.61;100.00;101211.31;4849912;29;20220;-80
2022/09/05 06:06:27;;;;;;;0.20;0.20;;;14.50;99.90;;;14.71;100.00;101207.81;4858655;29;20237;-80
2022/09/05 06:09:07;;;;;;;0.20;0.20;;;14.60;99.90;;;14.90;100.00;101221.19;4848858;29;20694;-80
2022/09/05 06:12:40;;;;;;;0.20;0.20;;;14.80;99.90;;;14.97;100.00;101223.88;4861046;29;20217;-80
2022/09/05 06:16:08;;;;;;;0.30;0.30;;;14.90;99.90;;;15.11;100.00;101226.59;4845289;29;20228;-81
2022/09/05 06:19:10;;;;;;;0.20;0.20;;;14.90;99.90;;;15.20;100.00;101237.28;4866726;29;20232;-81
2022/09/05 06:22:32;;;;;;;0.20;0.20;;;15.10;99.90;;;15.38;100.00;101255.97;4861868;29;20213;-80
2022/09/05 06:25:49;;;;;;;0.20;0.20;;;15.10;99.90;;;15.50;100.00;101260.44;4855459;29;20710;-80
2022/09/05 06:28:24;;;;;;;0.30;0.30;;;;;;;15.64;100.00;101269.44;4866218;29;20209;-81
2022/09/05 06:31:07;;;;;;;0.20;0.20;;;15.40;99.90;;;15.73;100.00;101252.56;4850938;29;20235;-81
2022/09/05 06:34:15;;;;;;;0.20;0.20;;;;;;;15.89;100.00;101256.13;4858268;29;20257;-81
2022/09/05 06:37:57;;;;;;;0.30;0.30;;;14.70;99.90;;;16.11;100.00;101252.56;4848274;29;20225;-81
2022/09/05 06:40:25;;;;;;;0.35;0.35;;;;;;;16.23;100.00;101240.97;4863284;29;20205;-83
2022/09/05 06:43:14;;;;;;;0.30;0.30;;;15.90;99.90;;;16.25;100.00;101247.22;4859496;29;20209;-81
2022/09/05 06:46:29;;;;;;;0.30;0.30;;;16.10;99.90;;;16.48;100.00;101236.47;4862601;29;20220;-82
2022/09/05 06:49:24;;;;;;;0.40;0.40;;;16.10;99.90;;;16.62;100.00;101232.88;4844006;29;20224;-80
2022/09/05 06:52:28;;;;;;;0.40;0.40;;;16.30;99.90;;;16.93;100.00;101241.75;4839847;29;20220;-81
2022/09/05 06:55:56;;;;;;;0.30;0.30;;;16.40;99.90;;;17.07;100.00;101227.44;4837578;29;20244;-81
2022/09/05 06:59:39;;;;;;;0.20;0.20;;;16.70;99.90;;;17.29;100.00;101223.75;4765264;29;20217;-83
2022/09/05 07:02:40;;;;;;;0.30;0.30;;;17.00;99.90;;;17.49;100.00;101213.81;4837927;29;20225;-82
2022/09/05 07:05:26;;;;;;;0.30;0.30;;;;;;;17.68;100.00;101201.22;4839677;29;20229;-80
2022/09/05 07:09:11;;;;;;;0.10;0.10;;;17.30;99.90;;;17.70;100.00;101190.50;4856924;29;20217;-82
2022/09/05 07:12:02;;;;;;;0.43;0.43;;;17.40;99.90;;;17.78;100.00;101194.88;4819907;29;20225;-81
2022/09/05 07:14:54;;;;;;;0.10;0.10;;;17.50;99.90;;;17.89;100.00;101201.03;4840381;29;20240;-81
2022/09/05 07:17:43;;;;;;;0.00;0.00;;;;;;;17.99;100.00;101212.53;4839553;29;20209;-81
2022/09/05 07:20:37;;;;;;;0.10;0.10;;;17.60;99.90;;;18.02;100.00;101192.91;4850655;29;20213;-82
2022/09/05 07:23:51;;;;;;;0.00;0.00;;;17.80;99.90;;;18.26;100.00;101191.78;4854318;29;20222;-81
2022/09/05 07:26:45;;;;;;;0.10;0.10;;;17.90;99.90;;;18.38;100.00;101197.03;4853172;29;20220;-83
2022/09/05 07:29:35;;;;;;;0.10;0.10;;;17.90;99.90;;;18.39;100.00;101199.69;4839538;29;20213;-82
2022/09/05 07:32:07;;;;;;;0.10;0.10;;;18.00;99.90;;;18.44;100.00;101187.13;4856950;29;20216;-82
2022/09/05 07:34:37;;;;;;;0.00;0.00;;;18.20;99.90;;;18.83;100.00;101198.31;4838861;29;20244;-83
2022/09/05 07:37:38;;;;;;;0.10;0.10;;;18.40;99.90;;;18.90;100.00;101181.22;4838935;29;20213;-85
2022/09/05 07:40:16;;;;;;;0.10;0.10;;;18.50;99.90;;;18.90;100.00;101185.72;4838389;29;20789;-82
2022/09/05 07:43:14;;;;;;;0.10;0.10;;;18.50;99.90;;;18.96;100.00;101189.19;4855221;29;20228;-82
2022/09/05 07:46:12;;;;;;;0.00;0.00;;;18.60;99.90;;;19.00;100.00;101196.28;4851074;29;20240;-84
2022/09/05 07:48:46;;;;;;;0.10;0.10;;;18.70;99.90;;;19.31;100.00;101202.09;4861758;29;20225;-84
2022/09/05 07:51:27;;;;;;;0.00;0.00;;;18.80;99.90;;;19.40;100.00;101196.59;4846876;29;20225;-81
2022/09/05 07:54:25;;;;;;;0.00;0.00;;;19.00;99.90;;;19.43;100.00;101185.81;4847014;29;20245;-80
2022/09/05 07:57:21;;;;;;;0.10;0.10;;;18.90;99.90;;;19.32;100.00;101163.66;4853069;29;20224;-79
2022/09/05 08:00:10;;;;;;;0.20;0.20;;;19.10;99.90;;;19.68;100.00;101185.50;4843224;29;20224;-80
2022/09/05 08:03:11;;;;;;;0.00;0.00;;;19.40;99.90;;;20.07;100.00;101198.25;4859596;29;20204;-85
2022/09/05 08:05:46;;;;;;;0.00;0.00;;;19.40;99.90;;;20.07;100.00;101190.19;4837492;29;20229;-79
2022/09/05 08:08:27;;;;;;;0.00;0.00;;;19.70;99.90;;;20.21;100.00;101195.31;4846338;29;20237;-80
2022/09/05 08:11:10;;;;;;;0.00;0.00;;;19.80;99.90;;;20.54;100.00;101203.66;4853931;29;20224;-81
2022/09/05 08:14:43;;;;;;;0.38;0.38;;;19.90;99.90;;;20.75;100.00;101179.91;4845067;29;20252;-81
2022/09/05 08:17:20;;;;;;;0.10;0.10;;;20.20;99.90;;;20.83;100.00;101160.97;4865157;29;20210;-80
2022/09/05 08:20:16;;;;;;;0.00;0.00;;;20.30;99.90;;;20.96;100.00;101140.97;4827804;29;20421;-82
2022/09/05 08:23:21;;;;;;;0.10;0.10;;;20.40;99.90;;;21.06;100.00;101123.69;4864068;29;20209;-82
2022/09/05 08:26:11;;;;;;;1.05;0.95;;;20.70;99.90;;;21.41;100.00;101148.91;4863050;29;20240;-82
2022/09/05 08:29:07;;;;;;;0.10;0.10;;;20.90;99.90;;;21.58;100.00;101126.97;4833452;29;20217;-80
2022/09/05 08:32:07;;;;;;;0.10;0.10;;;21.10;99.90;;;21.64;100.00;101076.53;4844278;29;20213;-81
2022/09/05 08:35:05;;;;;;;0.00;0.00;;;21.30;99.90;;;21.58;100.00;101065.06;4846239;29;20241;-79
2022/09/05 08:37:34;;;;;;;0.00;0.00;;;;;;;22.06;100.00;101114.03;4856618;29;20216;-82
2022/09/05 08:40:14;;;;;;;0.10;0.10;;;21.70;99.90;;;21.89;100.00;101065.09;4834946;29;20281;-84
2022/09/05 08:43:13;;;;;;;0.00;0.00;;;21.70;99.90;;;22.07;100.00;101067.31;4839300;29;20243;-81
2022/09/05 08:46:34;;;;;;;0.10;0.10;;;21.90;99.90;;;22.47;100.00;101130.88;4839057;29;20237;-83
2022/09/05 08:49:43;;;;;;;0.00;0.00;;;22.30;99.90;;;22.43;100.00;101054.63;4843429;29;20218;-79
2022/09/05 08:52:19;;;;;;;0.00;0.00;;;;;;;22.08;100.00;101012.53;4836123;29;20205;-79
2022/09/05 08:55:13;;;;;;;0.00;0.00;;;22.00;99.90;;;22.40;100.00;101032.28;4838563;29;20244;-83
2022/09/05 08:57:44;;;;;;;0.00;0.00;;;22.60;99.90;;;23.05;100.00;101081.47;4850176;29;20246;-82
2022/09/05 09:00:18;;;;;;;0.00;0.00;;;22.80;99.90;;;22.68;100.00;100990.94;4855092;29;20718;-79
2022/09/05 09:03:10;;;;;;;0.00;0.00;;;;;;;22.19;100.00;100982.59;4836357;29;20209;-79
2022/09/05 09:05:53;;;;;;;0.00;0.00;;;22.10;99.90;;;22.25;100.00;100986.00;4855151;29;20238;-81
2022/09/05 09:09:05;;;;;;;0.00;0.00;;;22.30;99.90;;;22.70;100.00;101025.94;4838499;29;20208;-81
2022/09/05 09:11:55;;;;;;;0.38;0.38;;;22.20;99.90;;;22.20;100.00;100944.84;4852505;29;20216;-81
2022/09/05 09:14:38;;;;;;;0.00;0.00;;;22.50;99.90;;;23.13;100.00;101047.03;4853792;29;20255;-80
2022/09/05 09:17:36;;;;;;;0.00;0.00;;;23.10;99.90;;;23.34;100.00;101007.66;4854598;29;20222;-80
2022/09/05 09:20:08;;;;;;;0.00;0.00;;;;;;;23.64;100.00;101034.56;4858933;29;20209;-80
2022/09/05 09:22:59;;;;;;;0.00;0.00;;;23.90;99.90;;;24.08;100.00;101023.03;4840652;29;20216;-79
2022/09/05 09:25:38;;;;;;;0.00;0.00;;;24.40;99.90;;;24.22;99.89;100982.84;4841863;29;20240;-80
2022/09/05 09:28:41;;;;;;;0.10;0.10;;;24.60;99.90;;;24.43;100.00;101028.94;4835229;29;20212;-81
2022/09/05 09:31:38;;;;;;;0.00;0.00;;;24.70;99.90;;;24.34;100.00;100981.53;4855706;29;20213;-81
2022/09/05 09:34:25;;;;;;;0.00;0.00;;;25.30;99.90;;;24.55;99.58;100955.47;4851654;29;20251;-82
2022/09/05 09:37:23;;;;;;;0.00;0.00;;;25.50;99.90;;;24.56;96.64;100919.34;4854752;29;20221;-81
2022/09/05 09:40:44;;;;;;;0.20;0.20;;;25.20;99.90;;;24.20;97.24;100873.91;4858978;29;20217;-80
2022/09/05 09:43:46;;;;;;;0.20;0.20;;;24.40;99.90;;;23.83;100.00;100865.50;4843349;29;20220;-81
2022/09/05 09:46:45;;;;;;;0.00;0.00;;;24.40;99.90;;;24.09;98.53;100872.59;4863032;29;20243;-79
2022/09/05 09:49:13;;;;;;;0.00;0.00;;;;;;;23.92;99.74;100857.06;4864776;29;20228;-80
2022/09/05 09:52:18;;;;;;;0.03;0.03;;;24.50;99.90;;;24.22;100.00;100898.19;4848094;29;20663;-80
2022/09/05 09:55:00;;;;;;;0.20;0.20;;;25.80;99.90;;;25.57;99.17;100969.22;4858354;29;20229;-81
2022/09/05 09:57:44;;;;;;;0.10;0.10;;;26.70;99.90;;;25.77;95.07;100910.50;4858207;29;20209;-80
2022/09/05 10:00:20;;;;;;;0.20;0.20;;;26.30;99.90;;;25.12;93.93;100837.66;4858510;29;20217;-80
2022/09/05 10:03:09;;;;;;;0.10;0.10;;;26.30;99.90;;;25.56;93.59;100875.38;4844211;29;20239;-81
2022/09/05 10:06:26;;;;;;;0.00;0.00;;;26.20;99.90;;;25.73;96.04;100898.06;4854131;29;20240;-82
2022/09/05 10:09:17;;;;;;;0.10;0.10;;;;;;;25.73;93.46;100860.13;4849480;29;20216;-80
2022/09/05 10:12:49;;;;;;;0.10;0.10;;;;;;;26.34;88.73;100824.69;4864190;29;20673;-81
2022/09/05 10:16:25;;;;;;;0.10;0.10;;;26.30;99.90;;;25.51;90.26;100757.31;4855320;29;20244;-82
2022/09/05 10:19:14;;;;;;;0.20;0.20;;;;;;;26.11;89.95;100804.13;4863294;29;20224;-80
2022/09/05 10:22:20;;;;;;;0.10;0.10;;;27.30;99.90;;;26.62;87.91;100801.59;4852028;29;20216;-80
2022/09/05 10:26:08;;;;;;;0.10;0.10;;;27.40;99.90;;;26.47;89.02;100762.56;4853654;29;20854;-80
2022/09/05 10:29:47;;;;;;;0.00;0.00;;;27.60;99.90;;;26.77;88.63;100771.81;4854304;29;20216;-80
2022/09/05 10:33:08;;;;;;;0.00;0.00;;;28.20;99.90;;;27.37;88.43;100788.53;4843667;29;20234;-78
2022/09/05 10:36:38;;;;;;;0.10;0.10;;;29.30;99.90;;;28.32;94.86;100881.97;4848325;29;20233;-78
2022/09/05 10:39:38;;;;;;;0.20;0.20;;;29.60;99.90;;;28.08;90.43;100801.78;4843184;29;20231;-78
2022/09/05 10:42:48;;;;;;;0.10;0.10;;;30.20;99.90;;;28.59;86.73;100753.44;4846171;29;20213;-78
2022/09/05 10:45:59;;;;;;;0.10;0.10;;;29.40;99.90;;;27.36;87.14;100628.38;4843734;29;20240;-78
2022/09/05 10:48:53;;;;;;;0.10;0.10;;;28.40;99.90;;;27.11;82.58;100569.16;4856297;29;20659;-78
2022/09/05 10:52:11;;;;;;;0.10;0.10;;;28.70;99.90;;;27.72;82.85;100615.41;4855620;29;20223;-78
2022/09/05 10:55:35;;;;;;;0.40;0.40;;;30.20;99.90;;;28.95;83.20;100696.78;4834538;29;20244;-78
2022/09/05 10:58:32;;;;;;;0.10;0.10;;;30.10;99.90;;;28.41;81.92;100580.44;4860658;29;20592;-78
2022/09/05 11:01:52;;;;;;;0.10;0.10;;;30.60;99.90;;;28.74;81.45;100594.69;4850068;29;20208;-77
2022/09/05 11:05:23;;;;;;;0.75;0.75;;;30.60;99.90;;;29.44;80.29;100631.00;4823175;29;20248;-77
2022/09/05 11:08:06;;;;;;;1.27;1.17;;;31.70;99.90;;;30.01;81.80;100628.09;4846205;29;20214;-79
2022/09/05 11:10:36;;;;;;;0.28;0.28;;;;;;;29.10;80.55;100533.38;4855480;29;20200;-78
2022/09/05 11:13:09;;;;;;;0.20;0.20;;;;;;;30.25;81.76;100645.50;4849580;29;20694;-78
2022/09/05 11:15:58;;;;;;;0.10;0.10;;;32.00;99.90;;;29.69;81.33;100558.47;4824100;29;20232;-78
2022/09/05 11:19:04;;;;;;;0.40;0.40;;;31.80;99.90;;;29.06;81.15;100463.78;4839904;29;20224;-78
2022/09/05 11:21:54;;;;;;;0.40;0.40;;;32.30;99.90;;;29.73;78.55;100494.59;4832540;29;20209;-78
2022/09/05 11:24:59;;;;;;;0.20;0.20;;;31.50;99.90;;;29.73;80.96;100500.94;4837132;29;20860;-78
2022/09/05 11:27:39;;;;;;;0.30;0.30;;;31.60;99.90;;;29.60;77.64;100445.53;4837345;29;20223;-77
2022/09/05 11:30:23;;;;;;;0.40;0.40;;;31.20;99.90;;;28.54;77.16;100303.91;4859431;29;20220;-78
2022/09/05 11:33:31;;;;;;;0.30;0.30;;;30.00;99.90;;;28.46;80.65;100326.19;4845207;29;20211;-77
2022/09/05 11:36:24;;;;;;;0.50;0.47;;;;;;;28.42;80.96;100316.50;4859168;29;20247;-77
2022/09/05 11:39:58;;;;;;;0.32;0.32;;;30.20;99.90;;;29.62;75.56;100376.31;4846395;29;20223;-78
2022/09/05 11:43:14;;;;;;;0.40;0.40;;;29.50;99.90;;;29.36;77.46;100350.00;4845265;29;20678;-78
2022/09/05 11:46:18;;;;;;;0.50;0.50;;;30.90;99.90;;;29.72;73.84;100318.41;4847630;29;20240;-78
2022/09/05 11:49:01;;;;;;;0.60;0.50;;;30.90;99.90;;;29.31;74.58;100271.31;4839493;29;20215;-78
2022/09/05 11:51:48;;;;;;;0.60;0.60;;;;;;;29.76;79.53;100350.78;4856147;29;20223;-78
2022/09/05 11:54:46;;;;;;;0.50;0.50;;;31.30;99.90;;;30.32;75.91;100362.19;4841781;29;20236;-77
2022/09/05 11:58:02;;;;;;;0.35;0.35;;;31.20;99.90;;;30.54;74.15;100350.53;4859584;29;20224;-78
2022/09/05 12:00:52;;;;;;;0.30;0.30;;;;;;;30.96;75.90;100364.69;4843205;29;20677;-78
2022/09/05 12:04:02;;;;;;;0.50;0.50;;;32.70;99.90;;;31.19;72.58;100325.56;4834665;29;20214;-78
2022/09/05 12:07:30;;;;;;;0.40;0.40;;;32.30;99.90;;;30.79;72.72;100256.75;4852632;29;20216;-76
2022/09/05 12:10:28;;;;;;;0.20;0.20;;;31.90;99.90;;;30.98;72.97;100261.66;4810384;29;20224;-77
2022/09/05 12:13:51;;;;;;;0.15;0.15;;;32.10;99.90;;;30.81;72.58;100211.09;4846736;29;20208;-81
2022/09/05 12:17:16;;;;;;;0.10;0.10;;;32.80;99.90;;;31.44;70.29;100216.06;4860534;29;20237;-80